sensor_id;sensor_type;location;lat;lon;timestamp;pressure;altitude;pressure_sealevel;temperature;humidity
50380;BME280;37474;59.468;18.040;2023-03-31T00:02:04;100459.75;;;-2.70;90.11
50380;BME280;37474;59.468;18.040;2023-03-31T00:04:41;100532.41;;;-2.23;89.00
50380;BME280;37474;59.468;18.040;2023-03-31T00:07:14;100529.03;;;-2.26;88.54
50380;BME280;37474;59.468;18.040;2023-03-31T00:09:44;100530.72;;;-2.19;88.62
50380;BME280;37474;59.468;18.040;2023-03-31T00:12:12;100529.88;;;-2.21;88.97
50380;BME280;37474;59.468;18.040;2023-03-31T00:14:41;100529.03;;;-2.31;90.11
50380;BME280;37474;59.468;18.040;2023-03-31T00:17:13;100529.91;;;-2.27;88.47
50380;BME280;37474;59.468;18.040;2023-03-31T00:19:43;100523.09;;;-2.21;88.71
50380;BME280;37474;59.468;18.040;2023-03-31T00:22:20;100522.25;;;-2.29;88.58
50380;BME280;37474;59.468;18.040;2023-03-31T00:24:53;100513.81;;;-2.34;89.33
50380;BME280;37474;59.468;18.040;2023-03-31T00:27:24;100514.66;;;-2.36;88.99
50380;BME280;37474;59.468;18.040;2023-03-31T00:29:53;100474.94;;;-2.56;88.52
50380;BME280;37474;59.468;18.040;2023-03-31T00:32:21;100503.69;;;-2.43;89.12
50380;BME280;37474;59.468;18.040;2023-03-31T00:34:53;100478.31;;;-2.57;88.88
50380;BME280;37474;59.468;18.040;2023-03-31T00:37:22;100502.84;;;-2.37;89.36
50380;BME280;37474;59.468;18.040;2023-03-31T00:39:50;100468.19;;;-2.64;88.58
50380;BME280;37474;59.468;18.040;2023-03-31T00:42:22;100468.22;;;-2.71;89.47
50380;BME280;37474;59.468;18.040;2023-03-31T00:45:23;100497.78;;;-2.57;89.33
50380;BME280;37474;59.468;18.040;2023-03-31T00:48:01;100493.50;;;-2.45;88.87
50380;BME280;37474;59.468;18.040;2023-03-31T00:50:32;100495.22;;;-2.47;89.10
50380;BME280;37474;59.468;18.040;2023-03-31T00:53:09;100497.75;;;-2.37;88.07
50380;BME280;37474;59.468;18.040;2023-03-31T00:55:41;100497.78;;;-2.44;88.34
50380;BME280;37474;59.468;18.040;2023-03-31T00:58:13;100493.53;;;-2.43;88.40
50380;BME280;37474;59.468;18.040;2023-03-31T01:00:46;100491.84;;;-2.53;88.82
50380;BME280;37474;59.468;18.040;2023-03-31T01:03:18;100488.44;;;-2.38;88.90
50380;BME280;37474;59.468;18.040;2023-03-31T01:05:50;100486.78;;;-2.44;89.06
50380;BME280;37474;59.468;18.040;2023-03-31T01:08:25;100485.06;;;-2.56;88.07
50380;BME280;37474;59.468;18.040;2023-03-31T01:10:55;100489.31;;;-2.49;87.94
50380;BME280;37474;59.468;18.040;2023-03-31T01:13:29;100488.47;;;-2.49;87.77
50380;BME280;37474;59.468;18.040;2023-03-31T01:15:57;100450.41;;;-2.63;87.59
50380;BME280;37474;59.468;18.040;2023-03-31T01:18:28;100478.31;;;-2.49;87.35
50380;BME280;37474;59.468;18.040;2023-03-31T01:24:28;100468.19;;;-2.58;88.12
50380;BME280;37474;59.468;18.040;2023-03-31T01:27:26;100467.28;;;-2.42;87.58
50380;BME280;37474;59.468;18.040;2023-03-31T01:30:28;100443.66;;;-2.61;86.79
50380;BME280;37474;59.468;18.040;2023-03-31T01:36:49;100458.00;;;-2.51;85.58
50380;BME280;37474;59.468;18.040;2023-03-31T01:42:48;100452.97;;;-2.63;86.14
50380;BME280;37474;59.468;18.040;2023-03-31T01:45:27;100458.84;;;-2.49;85.52
50380;BME280;37474;59.468;18.040;2023-03-31T01:48:01;100445.38;;;-2.71;85.76
50380;BME280;37474;59.468;18.040;2023-03-31T01:50:37;100463.09;;;-2.57;85.94
50380;BME280;37474;59.468;18.040;2023-03-31T01:53:15;100454.63;;;-2.56;85.41
50380;BME280;37474;59.468;18.040;2023-03-31T01:55:56;100456.34;;;-2.59;86.28
50380;BME280;37474;59.468;18.040;2023-03-31T01:58:29;100453.81;;;-2.61;86.56
50380;BME280;37474;59.468;18.040;2023-03-31T02:01:06;100455.53;;;-2.66;87.19
50380;BME280;37474;59.468;18.040;2023-03-31T02:03:39;100452.94;;;-2.58;86.17
50380;BME280;37474;59.468;18.040;2023-03-31T02:06:18;100451.25;;;-2.56;85.45
50380;BME280;37474;59.468;18.040;2023-03-31T02:08:49;100458.03;;;-2.64;84.56
50380;BME280;37474;59.468;18.040;2023-03-31T02:11:23;100447.88;;;-2.58;85.85
50380;BME280;37474;59.468;18.040;2023-03-31T02:13:53;100451.28;;;-2.61;85.91
50380;BME280;37474;59.468;18.040;2023-03-31T02:16:27;100448.69;;;-2.52;85.53
50380;BME280;37474;59.468;18.040;2023-03-31T02:19:00;100451.25;;;-2.56;85.61
50380;BME280;37474;59.468;18.040;2023-03-31T02:21:36;100449.59;;;-2.70;85.97
50380;BME280;37474;59.468;18.040;2023-03-31T02:24:08;100452.09;;;-2.62;86.32
50380;BME280;37474;59.468;18.040;2023-03-31T02:26:45;100455.50;;;-2.68;86.25
50380;BME280;37474;59.468;18.040;2023-03-31T02:29:16;100447.91;;;-2.69;85.96
50380;BME280;37474;59.468;18.040;2023-03-31T02:31:52;100448.72;;;-2.62;86.82
50380;BME280;37474;59.468;18.040;2023-03-31T02:34:23;100453.78;;;-2.56;86.06
50380;BME280;37474;59.468;18.040;2023-03-31T02:36:54;100426.75;;;-2.74;87.17
50380;BME280;37474;59.468;18.040;2023-03-31T02:39:25;100460.56;;;-2.58;86.65
50380;BME280;37474;59.468;18.040;2023-03-31T02:41:59;100461.41;;;-2.67;86.99
50380;BME280;37474;59.468;18.040;2023-03-31T02:44:35;100457.19;;;-2.68;86.03
50380;BME280;37474;59.468;18.040;2023-03-31T02:47:09;100454.66;;;-2.68;87.30
50380;BME280;37474;59.468;18.040;2023-03-31T02:49:40;100456.38;;;-2.70;86.92
50380;BME280;37474;59.468;18.040;2023-03-31T02:52:23;100426.78;;;-2.91;87.49
50380;BME280;37474;59.468;18.040;2023-03-31T02:55:10;100421.72;;;-2.93;87.51
50380;BME280;37474;59.468;18.040;2023-03-31T03:00:53;100458.88;;;-2.64;86.83
50380;BME280;37474;59.468;18.040;2023-03-31T03:03:32;100451.28;;;-2.75;86.65
50380;BME280;37474;59.468;18.040;2023-03-31T03:06:10;100447.91;;;-2.71;86.63
50380;BME280;37474;59.468;18.040;2023-03-31T03:09:03;100449.59;;;-2.70;86.27
50380;BME280;37474;59.468;18.040;2023-03-31T03:11:38;100426.78;;;-2.86;86.65
50380;BME280;37474;59.468;18.040;2023-03-31T03:14:26;100449.59;;;-2.73;86.34
50380;BME280;37474;59.468;18.040;2023-03-31T03:17:01;100445.34;;;-2.69;86.16
50380;BME280;37474;59.468;18.040;2023-03-31T03:19:40;100443.66;;;-2.67;86.53
50380;BME280;37474;59.468;18.040;2023-03-31T03:22:08;100449.59;;;-2.65;86.90
50380;BME280;37474;59.468;18.040;2023-03-31T03:24:40;100447.06;;;-2.65;86.54
50380;BME280;37474;59.468;18.040;2023-03-31T03:27:08;100444.53;;;-2.71;86.44
50380;BME280;37474;59.468;18.040;2023-03-31T03:29:37;100449.59;;;-2.68;86.11
50380;BME280;37474;59.468;18.040;2023-03-31T03:32:12;100440.31;;;-2.81;87.26
50380;BME280;37474;59.468;18.040;2023-03-31T03:34:39;100442.81;;;-2.68;87.07
50380;BME280;37474;59.468;18.040;2023-03-31T03:37:07;100447.94;;;-2.77;86.30
50380;BME280;37474;59.468;18.040;2023-03-31T03:39:39;100441.16;;;-2.75;86.52
50380;BME280;37474;59.468;18.040;2023-03-31T03:42:07;100395.53;;;-3.04;86.62
50380;BME280;37474;59.468;18.040;2023-03-31T03:44:35;100442.81;;;-2.72;86.75
50380;BME280;37474;59.468;18.040;2023-03-31T03:47:07;100428.47;;;-2.84;86.74
50380;BME280;37474;59.468;18.040;2023-03-31T03:49:35;100445.38;;;-2.66;87.03
50380;BME280;37474;59.468;18.040;2023-03-31T03:52:03;100436.03;;;-2.62;85.67
50380;BME280;37474;59.468;18.040;2023-03-31T03:54:35;100441.13;;;-2.64;86.01
50380;BME280;37474;59.468;18.040;2023-03-31T03:57:03;100445.34;;;-2.63;86.29
50380;BME280;37474;59.468;18.040;2023-03-31T03:59:32;100436.06;;;-2.69;85.82
50380;BME280;37474;59.468;18.040;2023-03-31T04:02:03;100441.97;;;-2.68;85.90
50380;BME280;37474;59.468;18.040;2023-03-31T04:04:33;100404.84;;;-3.03;86.10
50380;BME280;37474;59.468;18.040;2023-03-31T04:07:01;100414.97;;;-2.87;86.69
50380;BME280;37474;59.468;18.040;2023-03-31T04:09:32;100444.50;;;-2.63;86.01
50380;BME280;37474;59.468;18.040;2023-03-31T04:12:00;100420.88;;;-2.93;85.58
50380;BME280;37474;59.468;18.040;2023-03-31T04:14:28;100393.84;;;-3.09;86.26
50380;BME280;37474;59.468;18.040;2023-03-31T04:17:00;100443.66;;;-2.78;87.45
50380;BME280;37474;59.468;18.040;2023-03-31T04:19:30;100445.38;;;-2.66;86.75
50380;BME280;37474;59.468;18.040;2023-03-31T04:22:03;100409.91;;;-3.00;88.30
50380;BME280;37474;59.468;18.040;2023-03-31T04:24:34;100440.28;;;-2.63;86.80
50380;BME280;37474;59.468;18.040;2023-03-31T04:27:04;100398.06;;;-2.88;86.57
50380;BME280;37474;59.468;18.040;2023-03-31T04:29:33;100441.13;;;-2.73;86.93
50380;BME280;37474;59.468;18.040;2023-03-31T04:32:06;100438.59;;;-2.78;86.66
50380;BME280;37474;59.468;18.040;2023-03-31T04:34:34;100394.69;;;-2.94;87.60
50380;BME280;37474;59.468;18.040;2023-03-31T04:37:03;100437.75;;;-2.68;87.76
50380;BME280;37474;59.468;18.040;2023-03-31T04:39:35;100439.41;;;-2.67;87.03
50380;BME280;37474;59.468;18.040;2023-03-31T04:42:03;100434.34;;;-2.67;86.69
50380;BME280;37474;59.468;18.040;2023-03-31T04:44:31;100437.72;;;-2.61;86.69
50380;BME280;37474;59.468;18.040;2023-03-31T04:47:03;100406.50;;;-2.89;86.88
50380;BME280;37474;59.468;18.040;2023-03-31T04:49:32;100439.44;;;-2.63;86.88
50380;BME280;37474;59.468;18.040;2023-03-31T04:52:06;100442.78;;;-2.61;86.45
50380;BME280;37474;59.468;18.040;2023-03-31T04:54:38;100431.84;;;-2.71;87.44
50380;BME280;37474;59.468;18.040;2023-03-31T04:57:08;100442.00;;;-2.76;87.23
50380;BME280;37474;59.468;18.040;2023-03-31T04:59:36;100443.66;;;-2.73;86.68
50380;BME280;37474;59.468;18.040;2023-03-31T05:02:12;100444.53;;;-2.71;87.60
50380;BME280;37474;59.468;18.040;2023-03-31T05:04:41;100438.63;;;-2.82;86.66
50380;BME280;37474;59.468;18.040;2023-03-31T05:07:10;100450.44;;;-2.69;86.53
50380;BME280;37474;59.468;18.040;2023-03-31T05:09:42;100451.28;;;-2.70;87.32
50380;BME280;37474;59.468;18.040;2023-03-31T05:12:10;100449.56;;;-2.62;86.80
50380;BME280;37474;59.468;18.040;2023-03-31T05:14:38;100450.41;;;-2.63;87.21
50380;BME280;37474;59.468;18.040;2023-03-31T05:17:07;100446.22;;;-2.61;86.36
50380;BME280;37474;59.468;18.040;2023-03-31T05:19:35;100441.91;;;-2.47;85.70
50380;BME280;37474;59.468;18.040;2023-03-31T05:22:03;100387.91;;;-2.98;86.31
50380;BME280;37474;59.468;18.040;2023-03-31T05:24:35;100456.31;;;-2.52;86.54
50380;BME280;37474;59.468;18.040;2023-03-31T05:27:02;100450.38;;;-2.46;87.03
50380;BME280;37474;59.468;18.040;2023-03-31T05:29:30;100450.38;;;-2.48;85.48
50380;BME280;37474;59.468;18.040;2023-03-31T05:32:00;100445.28;;;-2.38;85.57
50380;BME280;37474;59.468;18.040;2023-03-31T05:34:28;100452.09;;;-2.48;85.70
50380;BME280;37474;59.468;18.040;2023-03-31T05:36:56;100452.09;;;-2.50;87.07
50380;BME280;37474;59.468;18.040;2023-03-31T05:39:26;100444.47;;;-2.44;85.74
50380;BME280;37474;59.468;18.040;2023-03-31T05:41:59;100454.59;;;-2.37;86.40
50380;BME280;37474;59.468;18.040;2023-03-31T05:44:30;100441.88;;;-2.36;86.18
50380;BME280;37474;59.468;18.040;2023-03-31T05:46:57;100413.19;;;-2.55;86.33
50380;BME280;37474;59.468;18.040;2023-03-31T05:49:26;100445.28;;;-2.38;86.05
50380;BME280;37474;59.468;18.040;2023-03-31T05:51:54;100446.97;;;-2.37;85.84
50380;BME280;37474;59.468;18.040;2023-03-31T05:54:22;100397.16;;;-2.69;86.41
50380;BME280;37474;59.468;18.040;2023-03-31T05:56:52;100440.97;;;-2.15;86.26
50380;BME280;37474;59.468;18.040;2023-03-31T05:59:22;100423.28;;;-2.38;86.00
50380;BME280;37474;59.468;18.040;2023-03-31T06:01:49;100449.41;;;-2.10;85.62
50380;BME280;37474;59.468;18.040;2023-03-31T06:04:20;100445.19;;;-2.14;85.03
50380;BME280;37474;59.468;18.040;2023-03-31T06:06:48;100444.38;;;-2.16;84.72
50380;BME280;37474;59.468;18.040;2023-03-31T06:09:16;100457.81;;;-1.93;83.60
50380;BME280;37474;59.468;18.040;2023-03-31T06:11:46;100446.03;;;-2.14;84.46
50380;BME280;37474;59.468;18.040;2023-03-31T06:14:16;100429.13;;;-2.18;84.45
50380;BME280;37474;59.468;18.040;2023-03-31T06:16:45;100462.00;;;-1.87;83.79
50380;BME280;37474;59.468;18.040;2023-03-31T06:19:17;100465.28;;;-1.68;82.35
50380;BME280;37474;59.468;18.040;2023-03-31T06:21:45;100451.63;;;-1.52;81.87
50380;BME280;37474;59.468;18.040;2023-03-31T06:24:14;100454.91;;;-1.36;80.39
50380;BME280;37474;59.468;18.040;2023-03-31T06:26:42;100444.56;;;-1.10;79.86
50380;BME280;37474;59.468;18.040;2023-03-31T06:29:09;100387.22;;;-1.51;78.67
50380;BME280;37474;59.468;18.040;2023-03-31T06:31:37;100453.78;;;-1.00;78.09
50380;BME280;37474;59.468;18.040;2023-03-31T06:34:06;100456.34;;;-1.00;77.97
50380;BME280;37474;59.468;18.040;2023-03-31T06:36:34;100462.41;;;-1.16;77.88
50380;BME280;37474;59.468;18.040;2023-03-31T06:39:02;100466.00;;;-1.46;79.58
50380;BME280;37474;59.468;18.040;2023-03-31T06:41:30;100448.19;;;-1.43;80.02
50380;BME280;37474;59.468;18.040;2023-03-31T06:43:58;100463.00;;;-0.90;77.88
50380;BME280;37474;59.468;18.040;2023-03-31T06:46:26;100462.56;;;-1.39;79.38
50380;BME280;37474;59.468;18.040;2023-03-31T06:48:53;100462.44;;;-1.24;79.54
50380;BME280;37474;59.468;18.040;2023-03-31T06:51:23;100444.69;;;-1.28;79.75
50380;BME280;37474;59.468;18.040;2023-03-31T06:53:51;100463.41;;;-1.39;79.65
50380;BME280;37474;59.468;18.040;2023-03-31T06:56:19;100461.44;;;-1.06;79.27
50380;BME280;37474;59.468;18.040;2023-03-31T06:58:47;100472.47;;;-1.06;77.66
50380;BME280;37474;59.468;18.040;2023-03-31T07:01:15;100470.81;;;-1.08;76.91
50380;BME280;37474;59.468;18.040;2023-03-31T07:03:43;100470.72;;;-0.94;76.57
50380;BME280;37474;59.468;18.040;2023-03-31T07:06:15;100447.72;;;-0.87;75.92
50380;BME280;37474;59.468;18.040;2023-03-31T07:08:44;100471.13;;;-0.49;75.68
50380;BME280;37474;59.468;18.040;2023-03-31T07:11:12;100405.97;;;-0.69;74.84
50380;BME280;37474;59.468;18.040;2023-03-31T07:13:43;100469.97;;;-0.24;73.58
50380;BME280;37474;59.468;18.040;2023-03-31T07:16:13;100466.66;;;-0.31;74.94
50380;BME280;37474;59.468;18.040;2023-03-31T07:18:41;100468.66;;;0.15;72.66
50380;BME280;37474;59.468;18.040;2023-03-31T07:21:13;100463.06;;;-0.13;71.93
50380;BME280;37474;59.468;18.040;2023-03-31T07:23:41;100471.22;;;0.14;72.42
50380;BME280;37474;59.468;18.040;2023-03-31T07:26:10;100473.09;;;0.01;71.08
50380;BME280;37474;59.468;18.040;2023-03-31T07:28:38;100472.13;;;0.11;71.47
50380;BME280;37474;59.468;18.040;2023-03-31T07:31:13;100475.00;;;-0.16;73.41
50380;BME280;37474;59.468;18.040;2023-03-31T07:33:41;100478.19;;;0.01;71.74
50380;BME280;37474;59.468;18.040;2023-03-31T07:36:09;100474.09;;;-0.12;71.53
50380;BME280;37474;59.468;18.040;2023-03-31T07:38:40;100483.75;;;-0.39;72.12
50380;BME280;37474;59.468;18.040;2023-03-31T07:41:11;100470.88;;;0.38;70.59
50380;BME280;37474;59.468;18.040;2023-03-31T07:43:39;100462.75;;;0.72;69.79
50380;BME280;37474;59.468;18.040;2023-03-31T07:46:16;100461.69;;;0.87;66.36
50380;BME280;37474;59.468;18.040;2023-03-31T07:48:47;100471.22;;;1.28;66.96
50380;BME280;37474;59.468;18.040;2023-03-31T07:51:16;100475.78;;;1.09;63.42
50380;BME280;37474;59.468;18.040;2023-03-31T07:53:46;100477.09;;;0.81;66.47
50380;BME280;37474;59.468;18.040;2023-03-31T07:56:20;100482.09;;;0.87;62.91
50380;BME280;37474;59.468;18.040;2023-03-31T07:58:51;100484.97;;;0.67;64.46
50380;BME280;37474;59.468;18.040;2023-03-31T08:01:25;100468.81;;;0.65;63.85
50380;BME280;37474;59.468;18.040;2023-03-31T08:03:55;100473.47;;;0.95;63.93
50380;BME280;37474;59.468;18.040;2023-03-31T08:06:25;100476.84;;;0.96;62.31
50380;BME280;37474;59.468;18.040;2023-03-31T08:08:57;100476.13;;;0.89;62.21
50380;BME280;37474;59.468;18.040;2023-03-31T08:11:26;100477.34;;;0.64;61.88
50380;BME280;37474;59.468;18.040;2023-03-31T08:13:56;100483.06;;;0.79;60.80
50380;BME280;37474;59.468;18.040;2023-03-31T08:16:28;100449.66;;;0.95;58.19
50380;BME280;37474;59.468;18.040;2023-03-31T08:18:55;100492.44;;;0.77;59.14
50380;BME280;37474;59.468;18.040;2023-03-31T08:21:26;100484.78;;;0.79;60.39
50380;BME280;37474;59.468;18.040;2023-03-31T08:23:56;100481.72;;;1.11;59.45
50380;BME280;37474;59.468;18.040;2023-03-31T08:26:26;100484.13;;;1.65;57.11
50380;BME280;37474;59.468;18.040;2023-03-31T08:28:56;100456.88;;;1.19;57.54
50380;BME280;37474;59.468;18.040;2023-03-31T08:31:25;100493.72;;;1.04;56.95
50380;BME280;37474;59.468;18.040;2023-03-31T08:33:54;100498.03;;;0.42;61.21
50380;BME280;37474;59.468;18.040;2023-03-31T08:36:23;100502.94;;;0.58;60.12
50380;BME280;37474;59.468;18.040;2023-03-31T08:38:54;100497.13;;;0.48;61.99
50380;BME280;37474;59.468;18.040;2023-03-31T08:41:35;100490.50;;;0.35;60.45
50380;BME280;37474;59.468;18.040;2023-03-31T08:44:11;100507.22;;;0.54;62.15
50380;BME280;37474;59.468;18.040;2023-03-31T08:46:46;100504.53;;;0.65;61.12
50380;BME280;37474;59.468;18.040;2023-03-31T08:49:17;100505.34;;;0.68;61.92
50380;BME280;37474;59.468;18.040;2023-03-31T08:51:51;100501.91;;;0.08;61.09
50380;BME280;37474;59.468;18.040;2023-03-31T08:54:30;100503.53;;;0.13;61.99
50380;BME280;37474;59.468;18.040;2023-03-31T08:57:05;100497.25;;;0.40;62.58
50380;BME280;37474;59.468;18.040;2023-03-31T08:59:39;100492.91;;;0.45;61.39
50380;BME280;37474;59.468;18.040;2023-03-31T09:02:17;100499.72;;;0.43;61.79
50380;BME280;37474;59.468;18.040;2023-03-31T09:05:08;100507.84;;;0.71;62.78
50380;BME280;37474;59.468;18.040;2023-03-31T09:07:51;100483.97;;;0.75;60.84
50380;BME280;37474;59.468;18.040;2023-03-31T09:10:32;100501.78;;;0.78;60.64
50380;BME280;37474;59.468;18.040;2023-03-31T09:13:20;100495.31;;;0.56;62.32
50380;BME280;37474;59.468;18.040;2023-03-31T09:15:53;100495.59;;;0.93;61.61
50380;BME280;37474;59.468;18.040;2023-03-31T09:18:30;100471.34;;;0.66;60.10
50380;BME280;37474;59.468;18.040;2023-03-31T09:21:03;100490.97;;;0.63;62.08
50380;BME280;37474;59.468;18.040;2023-03-31T09:23:41;100491.31;;;0.95;60.68
50380;BME280;37474;59.468;18.040;2023-03-31T09:26:13;100495.72;;;0.86;62.80
50380;BME280;37474;59.468;18.040;2023-03-31T09:28:56;100456.00;;;0.69;61.89
50380;BME280;37474;59.468;18.040;2023-03-31T09:31:26;100457.69;;;0.70;61.87
50380;BME280;37474;59.468;18.040;2023-03-31T09:34:00;100463.56;;;0.75;61.16
50380;BME280;37474;59.468;18.040;2023-03-31T09:36:29;100503.66;;;1.21;62.68
50380;BME280;37474;59.468;18.040;2023-03-31T09:38:57;100507.81;;;1.27;59.56
50380;BME280;37474;59.468;18.040;2023-03-31T09:41:25;100466.81;;;0.85;59.24
50380;BME280;37474;59.468;18.040;2023-03-31T09:43:54;100500.38;;;1.13;60.23
50380;BME280;37474;59.468;18.040;2023-03-31T09:46:28;100496.06;;;1.18;60.83
50380;BME280;37474;59.468;18.040;2023-03-31T09:49:00;100497.66;;;1.24;58.96
50380;BME280;37474;59.468;18.040;2023-03-31T09:51:31;100502.94;;;1.13;58.04
50380;BME280;37474;59.468;18.040;2023-03-31T09:54:09;100497.75;;;1.18;56.95
50380;BME280;37474;59.468;18.040;2023-03-31T09:56:48;100499.75;;;0.99;57.37
50380;BME280;37474;59.468;18.040;2023-03-31T09:59:23;100493.91;;;1.45;57.37
50380;BME280;37474;59.468;18.040;2023-03-31T10:01:58;100490.22;;;2.03;57.50
50380;BME280;37474;59.468;18.040;2023-03-31T10:04:32;100491.03;;;2.05;54.73
50380;BME280;37474;59.468;18.040;2023-03-31T10:07:03;100498.44;;;2.19;56.64
50380;BME280;37474;59.468;18.040;2023-03-31T10:09:31;100496.88;;;2.10;54.46
50380;BME280;37474;59.468;18.040;2023-03-31T10:12:02;100503.63;;;1.72;54.68
50380;BME280;37474;59.468;18.040;2023-03-31T10:14:39;100499.28;;;1.76;56.48
50380;BME280;37474;59.468;18.040;2023-03-31T10:17:13;100494.97;;;1.79;57.27
50380;BME280;37474;59.468;18.040;2023-03-31T10:19:46;100497.94;;;2.00;55.15
50380;BME280;37474;59.468;18.040;2023-03-31T10:22:26;100498.50;;;1.71;56.29
50380;BME280;37474;59.468;18.040;2023-03-31T10:25:07;100495.03;;;1.28;56.05
50380;BME280;37474;59.468;18.040;2023-03-31T10:27:38;100501.50;;;0.97;59.33
50380;BME280;37474;59.468;18.040;2023-03-31T10:30:11;100510.75;;;1.05;58.44
50380;BME280;37474;59.468;18.040;2023-03-31T10:32:45;100507.06;;;1.20;57.88
50380;BME280;37474;59.468;18.040;2023-03-31T10:35:25;100509.81;;;1.10;58.14
50380;BME280;37474;59.468;18.040;2023-03-31T10:37:57;100504.38;;;1.29;58.43
50380;BME280;37474;59.468;18.040;2023-03-31T10:40:34;100494.50;;;1.57;56.37
50380;BME280;37474;59.468;18.040;2023-03-31T10:43:10;100502.75;;;2.15;54.51
50380;BME280;37474;59.468;18.040;2023-03-31T10:45:43;100472.59;;;2.31;55.84
50380;BME280;37474;59.468;18.040;2023-03-31T10:48:19;100494.84;;;3.36;52.55
50380;BME280;37474;59.468;18.040;2023-03-31T10:50:50;100513.25;;;2.43;54.69
50380;BME280;37474;59.468;18.040;2023-03-31T10:53:19;100457.03;;;2.77;52.95
50380;BME280;37474;59.468;18.040;2023-03-31T10:56:00;100444.91;;;2.48;51.96
50380;BME280;37474;59.468;18.040;2023-03-31T10:58:39;100473.28;;;2.39;52.79
50380;BME280;37474;59.468;18.040;2023-03-31T11:01:32;100447.31;;;1.75;52.13
50380;BME280;37474;59.468;18.040;2023-03-31T11:04:19;100501.81;;;2.19;53.10
50380;BME280;37474;59.468;18.040;2023-03-31T11:06:56;100496.19;;;2.44;52.57
50380;BME280;37474;59.468;18.040;2023-03-31T11:09:38;100466.03;;;2.58;52.51
50380;BME280;37474;59.468;18.040;2023-03-31T11:12:17;100467.38;;;1.95;53.08
50380;BME280;37474;59.468;18.040;2023-03-31T11:14:59;100500.81;;;2.26;51.29
50380;BME280;37474;59.468;18.040;2023-03-31T11:17:43;100479.22;;;3.12;50.36
50380;BME280;37474;59.468;18.040;2023-03-31T11:20:22;100475.72;;;3.16;52.06
50380;BME280;37474;59.468;18.040;2023-03-31T11:23:01;100485.75;;;2.90;51.27
50380;BME280;37474;59.468;18.040;2023-03-31T11:25:38;100442.34;;;2.09;51.79
50380;BME280;37474;59.468;18.040;2023-03-31T11:28:24;100449.94;;;2.14;53.39
50380;BME280;37474;59.468;18.040;2023-03-31T11:31:05;100492.44;;;2.58;51.62
50380;BME280;37474;59.468;18.040;2023-03-31T11:33:45;100451.59;;;2.15;52.31
50380;BME280;37474;59.468;18.040;2023-03-31T11:36:29;100494.78;;;2.69;49.60
50380;BME280;37474;59.468;18.040;2023-03-31T11:39:14;100461.31;;;2.40;50.31
50380;BME280;37474;59.468;18.040;2023-03-31T11:41:49;100491.75;;;2.52;49.47
50380;BME280;37474;59.468;18.040;2023-03-31T11:44:22;100469.16;;;2.69;49.13
50380;BME280;37474;59.468;18.040;2023-03-31T11:46:56;100500.25;;;2.52;47.56
50380;BME280;37474;59.468;18.040;2023-03-31T11:49:32;100503.28;;;3.07;46.83
50380;BME280;37474;59.468;18.040;2023-03-31T11:52:08;100494.75;;;3.06;47.27
50380;BME280;37474;59.468;18.040;2023-03-31T11:54:42;100456.75;;;2.89;46.80
50380;BME280;37474;59.468;18.040;2023-03-31T11:57:16;100495.50;;;2.74;46.73
50380;BME280;37474;59.468;18.040;2023-03-31T11:59:49;100488.28;;;3.58;47.23
50380;BME280;37474;59.468;18.040;2023-03-31T12:02:30;100475.69;;;3.51;44.43
50380;BME280;37474;59.468;18.040;2023-03-31T12:05:07;100484.16;;;3.85;45.09
50380;BME280;37474;59.468;18.040;2023-03-31T12:07:40;100483.94;;;3.29;44.72
50380;BME280;37474;59.468;18.040;2023-03-31T12:10:19;100480.59;;;3.26;44.83
50380;BME280;37474;59.468;18.040;2023-03-31T12:12:51;100440.81;;;3.45;44.71
50380;BME280;37474;59.468;18.040;2023-03-31T12:15:24;100451.06;;;3.11;43.92
50380;BME280;37474;59.468;18.040;2023-03-31T12:17:58;100478.53;;;3.06;41.56
50380;BME280;37474;59.468;18.040;2023-03-31T12:20:33;100484.09;;;3.22;41.11
50380;BME280;37474;59.468;18.040;2023-03-31T12:23:12;100446.81;;;3.11;39.96
50380;BME280;37474;59.468;18.040;2023-03-31T12:25:49;100482.38;;;3.24;44.02
50380;BME280;37474;59.468;18.040;2023-03-31T12:28:28;100421.06;;;2.82;41.12
50380;BME280;37474;59.468;18.040;2023-03-31T12:30:59;100475.84;;;3.44;44.14
50380;BME280;37474;59.468;18.040;2023-03-31T12:33:30;100480.25;;;3.39;40.78
50380;BME280;37474;59.468;18.040;2023-03-31T12:36:16;100486.66;;;2.87;40.85
50380;BME280;37474;59.468;18.040;2023-03-31T12:39:01;100481.56;;;2.86;44.68
50380;BME280;37474;59.468;18.040;2023-03-31T12:41:43;100483.84;;;3.65;42.32
50380;BME280;37474;59.468;18.040;2023-03-31T12:44:36;100479.84;;;3.22;43.73
50380;BME280;37474;59.468;18.040;2023-03-31T12:47:26;100480.38;;;3.66;44.61
50380;BME280;37474;59.468;18.040;2023-03-31T12:50:11;100475.16;;;3.04;42.41
50380;BME280;37474;59.468;18.040;2023-03-31T12:52:51;100486.88;;;3.14;40.41
50380;BME280;37474;59.468;18.040;2023-03-31T12:55:35;100477.84;;;3.33;39.47
50380;BME280;37474;59.468;18.040;2023-03-31T12:58:38;100481.72;;;3.48;41.95
50380;BME280;37474;59.468;18.040;2023-03-31T13:01:11;100481.59;;;3.20;40.48
50380;BME280;37474;59.468;18.040;2023-03-31T13:03:50;100481.97;;;3.05;39.97
50380;BME280;37474;59.468;18.040;2023-03-31T13:06:55;100475.84;;;3.76;39.45
50380;BME280;37474;59.468;18.040;2023-03-31T13:09:47;100473.69;;;3.62;40.85
50380;BME280;37474;59.468;18.040;2023-03-31T13:12:22;100473.00;;;3.86;40.26
50380;BME280;37474;59.468;18.040;2023-03-31T13:14:52;100471.75;;;4.00;40.69
50380;BME280;37474;59.468;18.040;2023-03-31T13:17:23;100477.97;;;2.95;40.86
50380;BME280;37474;59.468;18.040;2023-03-31T13:19:56;100442.16;;;3.26;40.54
50380;BME280;37474;59.468;18.040;2023-03-31T13:22:39;100480.50;;;3.63;41.16
50380;BME280;37474;59.468;18.040;2023-03-31T13:25:35;100477.69;;;3.39;40.69
50380;BME280;37474;59.468;18.040;2023-03-31T13:28:10;100419.19;;;2.54;42.48
50380;BME280;37474;59.468;18.040;2023-03-31T13:30:49;100487.63;;;2.82;41.98
50380;BME280;37474;59.468;18.040;2023-03-31T13:33:24;100493.19;;;2.63;40.59